Observation data for Amherst on 08/14/2020      Previous  Date       Current Mesonet Observations  Soil Data  Daily Summary Page  Observations in Plain Language
KAMH 140500Z 03003KT 25/13 A3001 RMK A01 T02510125  RH  047%=      5-min Rain = 0
KAMH 140505Z 07003KT 25/12 A3001 RMK A01 T02510116  RH  044%=      5-min Rain = 0
KAMH 140510Z 07003KT 25/11 A3001 RMK A01 T02540113  RH  043%=      5-min Rain = 0
KAMH 140515Z 05005KT 25/11 A3001 RMK A01 T02530111  RH  042%=      5-min Rain = 0
KAMH 140520Z 06006KT 25/11 A3001 RMK A01 T02530107  RH  041%=      5-min Rain = 0
KAMH 140525Z 05006KT 26/11 A3001 RMK A01 T02550105  RH  040%=      5-min Rain = 0
KAMH 140530Z 06005KT 26/10 A3001 RMK A01 T02570104  RH  039%=      5-min Rain = 0
KAMH 140535Z 09005KT 25/11 A3001 RMK A01 T02520106  RH  041%=      5-min Rain = 0
KAMH 140540Z 09006KT 25/11 A3002 RMK A01 T02480107  RH  043%=      5-min Rain = 0
KAMH 140545Z 15006KT 25/11 A3002 RMK A01 T02480106  RH  042%=      5-min Rain = 0
KAMH 140550Z 14005KT 25/11 A3002 RMK A01 T02500105  RH  041%=      5-min Rain = 0
KAMH 140555Z 14004KT 25/10 A3002 RMK A01 T02520103  RH  040%=      5-min Rain = 0
KAMH 140600Z 10001KT 25/10 A3002 RMK A01 T02500104  RH  041%=      5-min Rain = 0
KAMH 140605Z 07001KT 25/10 A3002 RMK A01 T02490104  RH  041%=      5-min Rain = 0
KAMH 140610Z 09002KT 25/10 A3002 RMK A01 T02490104  RH  041%=      5-min Rain = 0
KAMH 140615Z 08001KT 25/10 A3003 RMK A01 T02490103  RH  041%=      5-min Rain = 0
KAMH 140620Z 03002KT 25/11 A3003 RMK A01 T02490105  RH  042%=      5-min Rain = 0
KAMH 140625Z 05002KT 25/11 A3003 RMK A01 T02460106  RH  043%=      5-min Rain = 0
KAMH 140630Z 04003KT 25/11 A3003 RMK A01 T02470105  RH  042%=      5-min Rain = 0
KAMH 140635Z 04004KT 25/10 A3003 RMK A01 T02470104  RH  042%=      5-min Rain = 0
KAMH 140640Z 04003KT 25/10 A3002 RMK A01 T02500102  RH  041%=      5-min Rain = 0
KAMH 140645Z 04004KT 25/10 A3002 RMK A01 T02520101  RH  040%=      5-min Rain = 0
KAMH 140650Z 04005KT 25/10 A3002 RMK A01 T02520101  RH  040%=      5-min Rain = 0
KAMH 140655Z 03004KT 25/10 A3002 RMK A01 T02500101  RH  040%=      5-min Rain = 0
KAMH 140700Z 03004KT 25/10 A3002 RMK A01 T02490101  RH  041%=      5-min Rain = 0
KAMH 140705Z 05004KT 25/10 A3002 RMK A01 T02460102  RH  041%=      5-min Rain = 0
KAMH 140710Z 06002KT 24/11 A3002 RMK A01 T02400105  RH  044%=      5-min Rain = 0
KAMH 140715Z 06003KT 23/11 A3002 RMK A01 T02320107  RH  047%=      5-min Rain = 0
KAMH 140720Z 07003KT 23/10 A3002 RMK A01 T02330104  RH  046%=      5-min Rain = 0
KAMH 140725Z 07003KT 24/10 A3001 RMK A01 T02350103  RH  045%=      5-min Rain = 0
KAMH 140730Z 07002KT 24/10 A3002 RMK A01 T02410100  RH  042%=      5-min Rain = 0
KAMH 140735Z 07001KT 25/10 A3002 RMK A01 T02470100  RH  041%=      5-min Rain = 0
KAMH 140740Z 05001KT 25/10 A3002 RMK A01 T02470101  RH  041%=      5-min Rain = 0
KAMH 140745Z 03001KT 24/11 A3001 RMK A01 T02430108  RH  044%=      5-min Rain = 0
KAMH 140750Z 06001KT 24/10 A3001 RMK A01 T02410104  RH  044%=      5-min Rain = 0
KAMH 140755Z 10001KT 24/11 A3001 RMK A01 T02430105  RH  043%=      5-min Rain = 0
KAMH 140800Z 16002KT 24/11 A3001 RMK A01 T02360107  RH  046%=      5-min Rain = 0
KAMH 140805Z 17002KT 23/11 A3001 RMK A01 T02340106  RH  046%=      5-min Rain = 0
KAMH 140810Z 17002KT 24/11 A3001 RMK A01 T02350109  RH  047%=      5-min Rain = 0
KAMH 140815Z 18003KT 23/11 A3001 RMK A01 T02340111  RH  048%=      5-min Rain = 0
KAMH 140820Z 18004KT 23/12 A3001 RMK A01 T02330118  RH  050%=      5-min Rain = 0
KAMH 140825Z 19005KT 23/11 A3001 RMK A01 T02330114  RH  049%=      5-min Rain = 0
KAMH 140830Z 19005KT 24/11 A3001 RMK A01 T02430107  RH  044%=      5-min Rain = 0
KAMH 140835Z 19006KT 25/11 A3001 RMK A01 T02470107  RH  043%=      5-min Rain = 0
KAMH 140840Z 19007KT 25/11 A3001 RMK A01 T02450111  RH  044%=      5-min Rain = 0
KAMH 140845Z 19007KT 24/11 A3001 RMK A01 T02440110  RH  044%=      5-min Rain = 0
KAMH 140850Z 20007KT 25/11 A3001 RMK A01 T02460110  RH  044%=      5-min Rain = 0
KAMH 140855Z 20007KT 25/11 A3001 RMK A01 T02460110  RH  044%=      5-min Rain = 0
KAMH 140900Z 20007KT 25/11 A3001 RMK A01 T02460111  RH  044%=      5-min Rain = 0
KAMH 140905Z 19006KT 24/11 A3001 RMK A01 T02420114  RH  046%=      5-min Rain = 0
KAMH 140910Z 21007KT 24/12 A3001 RMK A01 T02400116  RH  048%=      5-min Rain = 0
KAMH 140915Z 21007KT 24/12 A3001 RMK A01 T02430116  RH  047%=      5-min Rain = 0
KAMH 140920Z 20005KT 24/12 A3001 RMK A01 T02420117  RH  047%=      5-min Rain = 0
KAMH 140925Z 21005KT 24/12 A3001 RMK A01 T02380119  RH  049%=      5-min Rain = 0
KAMH 140930Z 22005KT 24/12 A3001 RMK A01 T02380122  RH  050%=      5-min Rain = 0
KAMH 140935Z 20005KT 24/13 A3001 RMK A01 T02360125  RH  052%=      5-min Rain = 0
KAMH 140940Z 20004KT 23/13 A3001 RMK A01 T02340126  RH  053%=      5-min Rain = 0
KAMH 140945Z 22004KT 23/13 A3001 RMK A01 T02330126  RH  053%=      5-min Rain = 0
KAMH 140950Z 24004KT 23/12 A3001 RMK A01 T02340124  RH  052%=      5-min Rain = 0
KAMH 140955Z 24005KT 24/12 A3001 RMK A01 T02370121  RH  050%=      5-min Rain = 0
KAMH 141000Z 24005KT 24/12 A3002 RMK A01 T02380120  RH  050%=      5-min Rain = 0
KAMH 141005Z 24005KT 23/12 A3002 RMK A01 T02340123  RH  052%=      5-min Rain = 0
KAMH 141010Z 24003KT 23/13 A3002 RMK A01 T02290126  RH  054%=      5-min Rain = 0
KAMH 141015Z 25002KT 22/13 A3002 RMK A01 T02240130  RH  057%=      5-min Rain = 0
KAMH 141020Z 27004KT 22/13 A3002 RMK A01 T02230128  RH  057%=      5-min Rain = 0
KAMH 141025Z 27005KT 22/13 A3002 RMK A01 T02210129  RH  058%=      5-min Rain = 0
KAMH 141030Z 26005KT 22/13 A3002 RMK A01 T02220129  RH  058%=      5-min Rain = 0
KAMH 141035Z 26005KT 22/13 A3003 RMK A01 T02230129  RH  057%=      5-min Rain = 0
KAMH 141040Z 26005KT 23/13 A3002 RMK A01 T02260129  RH  057%=      5-min Rain = 0
KAMH 141045Z 26005KT 23/13 A3002 RMK A01 T02270129  RH  056%=      5-min Rain = 0
KAMH 141050Z 26004KT 23/13 A3003 RMK A01 T02280129  RH  056%=      5-min Rain = 0
KAMH 141055Z 25004KT 23/13 A3003 RMK A01 T02310126  RH  053%=      5-min Rain = 0
KAMH 141100Z 24004KT 24/12 A3003 RMK A01 T02370124  RH  051%=      5-min Rain = 0
KAMH 141105Z 25004KT 24/12 A3003 RMK A01 T02390122  RH  050%=      5-min Rain = 0
KAMH 141110Z 26005KT 24/12 A3003 RMK A01 T02410122  RH  049%=      5-min Rain = 0
KAMH 141115Z 25005KT 24/12 A3003 RMK A01 T02400123  RH  050%=      5-min Rain = 0
KAMH 141120Z 24005KT 24/13 A3003 RMK A01 T02400125  RH  050%=      5-min Rain = 0
KAMH 141125Z 24006KT 24/12 A3003 RMK A01 T02420123  RH  049%=      5-min Rain = 0
KAMH 141130Z 24005KT 25/12 A3003 RMK A01 T02500117  RH  045%=      5-min Rain = 0
KAMH 141135Z 24005KT 25/12 A3003 RMK A01 T02520116  RH  044%=      5-min Rain = 0
KAMH 141140Z 25006KT 25/12 A3003 RMK A01 T02510117  RH  045%=      5-min Rain = 0
KAMH 141145Z 25006KT 25/12 A3003 RMK A01 T02480117  RH  046%=      5-min Rain = 0
KAMH 141150Z 26006KT 25/12 A3003 RMK A01 T02460119  RH  047%=      5-min Rain = 0
KAMH 141155Z 24005KT 24/12 A3004 RMK A01 T02420121  RH  049%=      5-min Rain = 0
KAMH 141200Z 25005KT 25/12 A3004 RMK A01 T02450118  RH  046%=      5-min Rain = 0
KAMH 141205Z 26004KT 24/12 A3004 RMK A01 T02420121  RH  048%=      5-min Rain = 0
KAMH 141210Z 26005KT 24/12 A3004 RMK A01 T02360124  RH  051%=      5-min Rain = 0
KAMH 141215Z 26005KT 23/13 A3004 RMK A01 T02340125  RH  052%=      5-min Rain = 0
KAMH 141220Z 25005KT 23/12 A3004 RMK A01 T02340124  RH  052%=      5-min Rain = 0
KAMH 141225Z 26005KT 24/12 A3004 RMK A01 T02360123  RH  051%=      5-min Rain = 0
KAMH 141230Z 26006KT 24/12 A3004 RMK A01 T02380124  RH  051%=      5-min Rain = 0
KAMH 141235Z 26006KT 24/13 A3004 RMK A01 T02390127  RH  051%=      5-min Rain = 0
KAMH 141240Z 26006KT 24/13 A3005 RMK A01 T02400127  RH  051%=      5-min Rain = 0
KAMH 141245Z 27006KT 24/13 A3005 RMK A01 T02430129  RH  051%=      5-min Rain = 0
KAMH 141250Z 27006KT 24/13 A3005 RMK A01 T02440130  RH  051%=      5-min Rain = 0
KAMH 141255Z 26006KT 25/13 A3005 RMK A01 T02460129  RH  050%=      5-min Rain = 0
KAMH 141300Z 26006KT 25/13 A3005 RMK A01 T02500126  RH  048%=      5-min Rain = 0
KAMH 141305Z 26006KT 25/12 A3005 RMK A01 T02530124  RH  047%=      5-min Rain = 0
KAMH 141310Z 26006KT 26/12 A3005 RMK A01 T02550124  RH  046%=      5-min Rain = 0
KAMH 141315Z 26007KT 26/12 A3005 RMK A01 T02570124  RH  045%=      5-min Rain = 0
KAMH 141320Z 26007KT 26/12 A3005 RMK A01 T02590123  RH  044%=      5-min Rain = 0
KAMH 141325Z 25007KT 26/12 A3005 RMK A01 T02630122  RH  043%=      5-min Rain = 0
KAMH 141330Z 24006KT 27/12 A3006 RMK A01 T02660121  RH  042%=      5-min Rain = 0
KAMH 141335Z 24005KT 27/12 A3006 RMK A01 T02680119  RH  041%=      5-min Rain = 0
KAMH 141340Z 25006KT 27/12 A3006 RMK A01 T02700120  RH  041%=      5-min Rain = 0
KAMH 141345Z 25005KT 27/12 A3006 RMK A01 T02700121  RH  041%=      5-min Rain = 0
KAMH 141350Z 25008KT 27/12 A3006 RMK A01 T02730118  RH  040%=      5-min Rain = 0
KAMH 141355Z 25007KT 28/12 A3006 RMK A01 T02760116  RH  038%=      5-min Rain = 0
KAMH 141400Z 25009KT 28/12 A3006 RMK A01 T02780115  RH  037%=      5-min Rain = 0
KAMH 141405Z 25009KT 28/12 A3006 RMK A01 T02810115  RH  037%=      5-min Rain = 0
KAMH 141410Z 25010KT 28/12 A3006 RMK A01 T02830117  RH  037%=      5-min Rain = 0
KAMH 141415Z 24010G15KT 29/12 A3006 RMK A01 T02850117  RH  037%=      5-min Rain = 0
KAMH 141420Z 23012KT 29/12 A3006 RMK A01 T02860116  RH  036%=      5-min Rain = 0
KAMH 141425Z 23012KT 29/12 A3006 RMK A01 T02860115  RH  036%=      5-min Rain = 0
KAMH 141430Z 24013G18KT 29/12 A3006 RMK A01 T02850116  RH  036%=      5-min Rain = 0
KAMH 141435Z 23012KT 29/12 A3006 RMK A01 T02870117  RH  036%=      5-min Rain = 0
KAMH 141440Z 23013KT 29/12 A3006 RMK A01 T02870118  RH  037%=      5-min Rain = 0
KAMH 141445Z 23011KT 29/12 A3006 RMK A01 T02870119  RH  037%=      5-min Rain = 0
KAMH 141450Z 23010KT 29/12 A3006 RMK A01 T02910121  RH  036%=      5-min Rain = 0
KAMH 141455Z 24015KT 30/12 A3006 RMK A01 T02980120  RH  035%=      5-min Rain = 0
KAMH 141500Z 23013KT 30/12 A3006 RMK A01 T03020118  RH  033%=      5-min Rain = 0
KAMH 141505Z 24014KT 31/12 A3006 RMK A01 T03070120  RH  033%=      5-min Rain = 0
KAMH 141510Z 24013KT 31/12 A3006 RMK A01 T03140120  RH  032%=      5-min Rain = 0
KAMH 141515Z 24013KT 31/12 A3006 RMK A01 T03060121  RH  033%=      5-min Rain = 0
KAMH 141520Z 23013KT 31/12 A3006 RMK A01 T03050122  RH  034%=      5-min Rain = 0
KAMH 141525Z 23014KT 30/12 A3006 RMK A01 T03040119  RH  033%=      5-min Rain = 0
KAMH 141530Z 23014KT 31/12 A3006 RMK A01 T03050117  RH  033%=      5-min Rain = 0
KAMH 141535Z 23013KT 31/12 A3006 RMK A01 T03060118  RH  033%=      5-min Rain = 0
KAMH 141540Z 24011KT 31/12 A3006 RMK A01 T03110121  RH  032%=      5-min Rain = 0
KAMH 141545Z 24012KT 32/12 A3006 RMK A01 T03180120  RH  031%=      5-min Rain = 0
KAMH 141550Z 24010KT 32/12 A3006 RMK A01 T03180121  RH  031%=      5-min Rain = 0
KAMH 141555Z 24011KT 32/12 A3006 RMK A01 T03240123  RH  031%=      5-min Rain = 0
KAMH 141600Z 24010KT 33/12 A3006 RMK A01 T03280124  RH  030%=      5-min Rain = 0
KAMH 141605Z 24008KT 33/12 A3006 RMK A01 T03280124  RH  030%=      5-min Rain = 0
KAMH 141610Z 25009KT 34/12 A3006 RMK A01 T03370117  RH  027%=      5-min Rain = 0
KAMH 141615Z 25011KT 34/11 A3006 RMK A01 T03440106  RH  024%=      5-min Rain = 0
KAMH 141620Z 25010G16KT 35/11 A3006 RMK A01 T03490106  RH  024%=      5-min Rain = 0
KAMH 141625Z 25010KT 36/10 A3006 RMK A01 T03580098  RH  021%=      5-min Rain = 0
KAMH 141630Z 26011KT 36/11 A3006 RMK A01 T03600105  RH  022%=      5-min Rain = 0
KAMH 141635Z 24011KT 36/10 A3006 RMK A01 T03620095  RH  020%=      5-min Rain = 0
KAMH 141640Z 25011KT 37/09 A3006 RMK A01 T03650089  RH  019%=      5-min Rain = 0
KAMH 141645Z 24015G20KT 37/08 A3006 RMK A01 T03650083  RH  018%=      5-min Rain = 0
KAMH 141650Z 22013G18KT 37/09 A3006 RMK A01 T03690088  RH  019%=      5-min Rain = 0
KAMH 141655Z 23012KT 36/09 A3006 RMK A01 T03630088  RH  019%=      5-min Rain = 0
KAMH 141700Z 22011KT 36/09 A3006 RMK A01 T03590091  RH  020%=      5-min Rain = 0
KAMH 141705Z 24011KT 36/09 A3006 RMK A01 T03590088  RH  020%=      5-min Rain = 0
KAMH 141710Z 23012G17KT 36/09 A3005 RMK A01 T03620090  RH  020%=      5-min Rain = 0
KAMH 141715Z 25012G18KT 37/09 A3005 RMK A01 T03650091  RH  019%=      5-min Rain = 0
KAMH 141720Z 24013G18KT 37/09 A3006 RMK A01 T03660089  RH  019%=      5-min Rain = 0
KAMH 141725Z 24013G18KT 36/09 A3006 RMK A01 T03640092  RH  020%=      5-min Rain = 0
KAMH 141730Z 24014KT 36/09 A3006 RMK A01 T03620090  RH  020%=      5-min Rain = 0
KAMH 141735Z 23013KT 36/09 A3005 RMK A01 T03600089  RH  020%=      5-min Rain = 0
KAMH 141740Z 23012G17KT 36/09 A3005 RMK A01 T03610087  RH  019%=      5-min Rain = 0
KAMH 141745Z 23013G19KT 36/09 A3005 RMK A01 T03620086  RH  019%=      5-min Rain = 0
KAMH 141750Z 24011G16KT 36/09 A3005 RMK A01 T03640087  RH  019%=      5-min Rain = 0
KAMH 141755Z 23011KT 37/09 A3005 RMK A01 T03670087  RH  019%=      5-min Rain = 0
KAMH 141800Z 24011KT 37/08 A3005 RMK A01 T03670083  RH  018%=      5-min Rain = 0
KAMH 141805Z 22010KT 37/08 A3004 RMK A01 T03660084  RH  018%=      5-min Rain = 0
KAMH 141810Z 22012KT 37/09 A3004 RMK A01 T03670086  RH  019%=      5-min Rain = 0
KAMH 141815Z 23010KT 37/09 A3004 RMK A01 T03660088  RH  019%=      5-min Rain = 0
KAMH 141820Z 22011KT 37/09 A3004 RMK A01 T03720087  RH  018%=      5-min Rain = 0
KAMH 141825Z 24011KT 38/09 A3004 RMK A01 T03760089  RH  018%=      5-min Rain = 0
KAMH 141830Z 23010G17KT 38/09 A3004 RMK A01 T03840091  RH  018%=      5-min Rain = 0
KAMH 141835Z 22013G19KT 39/09 A3004 RMK A01 T03860085  RH  017%=      5-min Rain = 0
KAMH 141840Z 23012KT 39/08 A3003 RMK A01 T03860080  RH  016%=      5-min Rain = 0
KAMH 141845Z 22012KT 38/08 A3003 RMK A01 T03840081  RH  016%=      5-min Rain = 0
KAMH 141850Z 23013G19KT 39/08 A3003 RMK A01 T03900083  RH  016%=      5-min Rain = 0
KAMH 141855Z 24013G18KT 39/08 A3003 RMK A01 T03920079  RH  015%=      5-min Rain = 0
KAMH 141900Z 23014G19KT 39/08 A3003 RMK A01 T03910077  RH  015%=      5-min Rain = 0
KAMH 141905Z 23012G17KT 39/08 A3002 RMK A01 T03900080  RH  016%=      5-min Rain = 0
KAMH 141910Z 23013KT 39/08 A3002 RMK A01 T03890077  RH  016%=      5-min Rain = 0
KAMH 141915Z 24014G19KT 39/08 A3002 RMK A01 T03900077  RH  015%=      5-min Rain = 0
KAMH 141920Z 24013KT 39/08 A3002 RMK A01 T03910075  RH  015%=      5-min Rain = 0
KAMH 141925Z 25011G17KT 39/08 A3002 RMK A01 T03910076  RH  015%=      5-min Rain = 0
KAMH 141930Z 22013KT 39/08 A3001 RMK A01 T03940075  RH  015%=      5-min Rain = 0
KAMH 141935Z 23009KT 39/07 A3001 RMK A01 T03910074  RH  015%=      5-min Rain = 0
KAMH 141940Z 23011G16KT 39/08 A3001 RMK A01 T03920079  RH  015%=      5-min Rain = 0
KAMH 141945Z 23011G17KT 40/08 A3001 RMK A01 T03950080  RH  015%=      5-min Rain = 0
KAMH 141950Z 21011KT 40/08 A30 RMK A01 T03980080  RH  015%=      5-min Rain = 0
KAMH 141955Z 20010G16KT 40/08 A30 RMK A01 T03960079  RH  015%=      5-min Rain = 0
KAMH 142000Z 21010G18KT 40/08 A30 RMK A01 T03950081  RH  015%=      5-min Rain = 0
KAMH 142005Z 22011G18KT 39/08 A30 RMK A01 T03940081  RH  016%=      5-min Rain = 0
KAMH 142010Z 22012G18KT 40/08 A2999 RMK A01 T03950083  RH  016%=      5-min Rain = 0
KAMH 142015Z 22015G23KT 40/08 A2999 RMK A01 T03960082  RH  016%=      5-min Rain = 0
KAMH 142020Z 24014G21KT 39/08 A2999 RMK A01 T03930079  RH  015%=      5-min Rain = 0
KAMH 142025Z 22013G19KT 39/08 A2999 RMK A01 T03940080  RH  015%=      5-min Rain = 0
KAMH 142030Z 24014G20KT 39/08 A2998 RMK A01 T03920079  RH  015%=      5-min Rain = 0
KAMH 142035Z 22011G17KT 39/08 A2998 RMK A01 T03920080  RH  016%=      5-min Rain = 0
KAMH 142040Z 23012G17KT 39/08 A2998 RMK A01 T03940078  RH  015%=      5-min Rain = 0
KAMH 142045Z 22009G16KT 40/08 A2998 RMK A01 T03960082  RH  015%=      5-min Rain = 0
KAMH 142050Z 23012G17KT 39/08 A2998 RMK A01 T03930079  RH  015%=      5-min Rain = 0
KAMH 142055Z 24011G17KT 39/08 A2998 RMK A01 T03930077  RH  015%=      5-min Rain = 0
KAMH 142100Z 24010G15KT 40/08 A2997 RMK A01 T03950078  RH  015%=      5-min Rain = 0
KAMH 142105Z 22008G15KT 39/08 A2997 RMK A01 T03930078  RH  015%=      5-min Rain = 0
KAMH 142110Z 22008KT 39/08 A2997 RMK A01 T03940078  RH  015%=      5-min Rain = 0
KAMH 142115Z 23011KT 40/08 A2997 RMK A01 T04000079  RH  015%=      5-min Rain = 0
KAMH 142120Z 23008KT 40/08 A2997 RMK A01 T03990076  RH  015%=      5-min Rain = 0
KAMH 142125Z 21011G18KT 40/08 A2997 RMK A01 T03970075  RH  015%=      5-min Rain = 0
KAMH 142130Z 19010G16KT 40/07 A2997 RMK A01 T03950072  RH  014%=      5-min Rain = 0
KAMH 142135Z 22009G14KT 40/08 A2996 RMK A01 T03960076  RH  015%=      5-min Rain = 0
KAMH 142140Z 22013G18KT 40/08 A2996 RMK A01 T03980075  RH  015%=      5-min Rain = 0
KAMH 142145Z 24011G16KT 40/07 A2996 RMK A01 T03970073  RH  015%=      5-min Rain = 0
KAMH 142150Z 21009G16KT 40/08 A2996 RMK A01 T04030076  RH  014%=      5-min Rain = 0
KAMH 142155Z 21009G14KT 40/07 A2996 RMK A01 T03950074  RH  015%=      5-min Rain = 0
KAMH 142200Z 24010G17KT 40/08 A2996 RMK A01 T03950075  RH  015%=      5-min Rain = 0
KAMH 142205Z 22012KT 40/07 A2996 RMK A01 T03970074  RH  015%=      5-min Rain = 0
KAMH 142210Z 23008KT 39/07 A2996 RMK A01 T03930072  RH  015%=      5-min Rain = 0
KAMH 142215Z 24008KT 39/07 A2996 RMK A01 T03920073  RH  015%=      5-min Rain = 0
KAMH 142220Z 24011G18KT 39/07 A2995 RMK A01 T03930072  RH  015%=      5-min Rain = 0
KAMH 142225Z 24007KT 39/07 A2996 RMK A01 T03940071  RH  014%=      5-min Rain = 0
KAMH 142230Z 22007G12KT 39/07 A2995 RMK A01 T03910070  RH  015%=      5-min Rain = 0
KAMH 142235Z 22010G15KT 39/07 A2995 RMK A01 T03910068  RH  014%=      5-min Rain = 0
KAMH 142240Z 22006G13KT 39/07 A2996 RMK A01 T03920069  RH  014%=      5-min Rain = 0
KAMH 142245Z 21007G14KT 39/07 A2996 RMK A01 T03930071  RH  015%=      5-min Rain = 0
KAMH 142250Z 20010KT 39/07 A2996 RMK A01 T03940072  RH  015%=      5-min Rain = 0
KAMH 142255Z 20011KT 39/07 A2995 RMK A01 T03910071  RH  015%=      5-min Rain = 0
KAMH 142300Z 21009KT 39/07 A2995 RMK A01 T03900070  RH  015%=      5-min Rain = 0
KAMH 142305Z 21007KT 39/07 A2995 RMK A01 T03930071  RH  015%=      5-min Rain = 0
KAMH 142310Z 22006KT 39/07 A2995 RMK A01 T03890067  RH  015%=      5-min Rain = 0
KAMH 142315Z 22006KT 39/07 A2995 RMK A01 T03880068  RH  015%=      5-min Rain = 0
KAMH 142320Z 21010G15KT 38/07 A2996 RMK A01 T03840069  RH  015%=      5-min Rain = 0
KAMH 142325Z 21010KT 38/07 A2996 RMK A01 T03820068  RH  015%=      5-min Rain = 0
KAMH 142330Z 21008G13KT 38/07 A2995 RMK A01 T03780069  RH  016%=      5-min Rain = 0
KAMH 142335Z 23009G14KT 38/07 A2995 RMK A01 T03770067  RH  015%=      5-min Rain = 0
KAMH 142340Z 22009G14KT 38/07 A2996 RMK A01 T03770067  RH  015%=      5-min Rain = 0
KAMH 142345Z 22011KT 38/07 A2995 RMK A01 T03750069  RH  016%=      5-min Rain = 0
KAMH 142350Z 22010KT 37/07 A2996 RMK A01 T03730069  RH  016%=      5-min Rain = 0
KAMH 142355Z 22009G14KT 37/07 A2996 RMK A01 T03720068  RH  016%=      5-min Rain = 0
KAMH 150000Z 22009KT 37/07 A2996 RMK A01 T03700069  RH  016%=      5-min Rain = 0
KAMH 150005Z 21006KT 37/07 A2997 RMK A01 T03680070  RH  016%=      5-min Rain = 0
KAMH 150010Z 12009G21KT 36/08 A2998 RMK A01 T03640076  RH  018%=      5-min Rain = 0
KAMH 150015Z 07016G21KT 34/10 A2999 RMK A01 T03390099  RH  024%=      5-min Rain = 0
KAMH 150020Z 06013KT 33/10 A30 RMK A01 T03300102  RH  026%=      5-min Rain = 0
KAMH 150025Z 02014G23KT 33/10 A3003 RMK A01 T03290103  RH  026%=      5-min Rain = 0
KAMH 150030Z 02020G29KT 32/11 A3005 RMK A01 T03240109  RH  028%=      5-min Rain = 0
KAMH 150035Z 00023G34KT 28/14 A3007 RMK A01 T02780142  RH  046%=      5-min Rain = 0
KAMH 150040Z 35030G38KT 24/16 A3008 RMK A01 T02390157  RH  063%=      5-min Rain = 0
KAMH 150045Z 34028G37KT 23/16 A301 RMK A01 T02270155  RH  067%=      5-min Rain = 0.02
KAMH 150050Z 35022G30KT 22/15 A3011 RMK A01 T02240152  RH  066%=      5-min Rain = 0
KAMH 150055Z 00017KT 23/15 A3011 RMK A01 T02320145  RH  061%=      5-min Rain = 0.01
KAMH 150100Z 01013G18KT 24/14 A301 RMK A01 T02360144  RH  059%=      5-min Rain = 0
KAMH 150105Z 01015G20KT 24/15 A301 RMK A01 T02370146  RH  059%=      5-min Rain = 0
KAMH 150110Z 01016KT 24/15 A301 RMK A01 T02390145  RH  058%=      5-min Rain = 0
KAMH 150115Z 01015G21KT 24/15 A3011 RMK A01 T02400146  RH  058%=      5-min Rain = 0
KAMH 150120Z 01017KT 24/15 A3011 RMK A01 T02370146  RH  059%=      5-min Rain = 0
KAMH 150125Z 01015G20KT 24/14 A3012 RMK A01 T02420141  RH  056%=      5-min Rain = 0
KAMH 150130Z 01015KT 25/14 A3012 RMK A01 T02460139  RH  053%=      5-min Rain = 0
KAMH 150135Z 01015G20KT 25/14 A3013 RMK A01 T02500137  RH  052%=      5-min Rain = 0
KAMH 150140Z 01014KT 25/14 A3013 RMK A01 T02510140  RH  052%=      5-min Rain = 0
KAMH 150145Z 02012G19KT 25/15 A3013 RMK A01 T02450147  RH  057%=      5-min Rain = 0
KAMH 150150Z 02009KT 24/15 A3013 RMK A01 T02380151  RH  061%=      5-min Rain = 0
KAMH 150155Z 02010KT 24/15 A3012 RMK A01 T02410149  RH  059%=      5-min Rain = 0
KAMH 150200Z 02009KT 24/15 A3012 RMK A01 T02390152  RH  061%=      5-min Rain = 0
KAMH 150205Z 03008KT 24/15 A3012 RMK A01 T02380152  RH  061%=      5-min Rain = 0
KAMH 150210Z 02008KT 24/15 A3012 RMK A01 T02410149  RH  059%=      5-min Rain = 0
KAMH 150215Z 03010KT 25/15 A3011 RMK A01 T02460145  RH  056%=      5-min Rain = 0
KAMH 150220Z 03009KT 25/14 A3012 RMK A01 T02500141  RH  053%=      5-min Rain = 0
KAMH 150225Z 04007KT 25/14 A3012 RMK A01 T02520139  RH  051%=      5-min Rain = 0
KAMH 150230Z 02005KT 25/14 A3012 RMK A01 T02520142  RH  053%=      5-min Rain = 0
KAMH 150235Z 02004KT 25/14 A3011 RMK A01 T02520144  RH  054%=      5-min Rain = 0
KAMH 150240Z 04004KT 25/14 A3011 RMK A01 T02530142  RH  052%=      5-min Rain = 0
KAMH 150245Z 08004KT 26/14 A301 RMK A01 T02550142  RH  052%=      5-min Rain = 0
KAMH 150250Z 10005KT 25/15 A301 RMK A01 T02500152  RH  057%=      5-min Rain = 0
KAMH 150255Z 11005KT 25/16 A301 RMK A01 T02460155  RH  059%=      5-min Rain = 0
KAMH 150300Z 11003KT 25/15 A301 RMK A01 T02470151  RH  058%=      5-min Rain = 0
KAMH 150305Z 13002KT 25/15 A301 RMK A01 T02500149  RH  056%=      5-min Rain = 0
KAMH 150310Z 11005KT 25/16 A301 RMK A01 T02500155  RH  058%=      5-min Rain = 0
KAMH 150315Z 11006KT 25/16 A3009 RMK A01 T02470159  RH  061%=      5-min Rain = 0
KAMH 150320Z 12011KT 25/16 A3008 RMK A01 T02450157  RH  061%=      5-min Rain = 0
KAMH 150325Z 13014KT 25/15 A3006 RMK A01 T02540147  RH  054%=      5-min Rain = 0
KAMH 150330Z 15016KT 25/15 A3004 RMK A01 T02540148  RH  054%=      5-min Rain = 0
KAMH 150335Z 15018KT 25/15 A3003 RMK A01 T02540145  RH  053%=      5-min Rain = 0
KAMH 150340Z 15017KT 26/14 A3003 RMK A01 T02580138  RH  049%=      5-min Rain = 0
KAMH 150345Z 16016KT 26/14 A3003 RMK A01 T02550141  RH  052%=      5-min Rain = 0
KAMH 150350Z 15017G22KT 26/14 A3003 RMK A01 T02560138  RH  050%=      5-min Rain = 0
KAMH 150355Z 14014G20KT 26/13 A3003 RMK A01 T02610134  RH  047%=      5-min Rain = 0
KAMH 150400Z 14013G18KT 27/13 A3003 RMK A01 T02650133  RH  046%=      5-min Rain = 0
KAMH 150405Z 10011KT 26/14 A3004 RMK A01 T02550143  RH  052%=      5-min Rain = 0
KAMH 150410Z 11014G20KT 26/14 A3003 RMK A01 T02560137  RH  050%=      5-min Rain = 0
KAMH 150415Z 12017G23KT 26/13 A3003 RMK A01 T02600131  RH  046%=      5-min Rain = 0
KAMH 150420Z 13014KT 27/12 A3004 RMK A01 T02650124  RH  043%=      5-min Rain = 0
KAMH 150425Z 12013KT 27/12 A3004 RMK A01 T02650123  RH  043%=      5-min Rain = 0
KAMH 150430Z 12013KT 26/12 A3004 RMK A01 T02640123  RH  043%=      5-min Rain = 0
KAMH 150435Z 11013KT 26/13 A3004 RMK A01 T02600129  RH  046%=      5-min Rain = 0
KAMH 150440Z 11012KT 26/13 A3004 RMK A01 T02590130  RH  046%=      5-min Rain = 0
KAMH 150445Z 12010KT 26/13 A3005 RMK A01 T02570130  RH  047%=      5-min Rain = 0
KAMH 150450Z 11010KT 26/13 A3005 RMK A01 T02580129  RH  047%=      5-min Rain = 0
KAMH 150455Z 13008KT 26/13 A3004 RMK A01 T02600128  RH  046%=      5-min Rain = 0

Page generated in 0.0099 seconds.